sensor_id;sensor_type;location;lat;lon;timestamp;P1;durP1;ratioP1;P2;durP2;ratioP2
49175;SDS011;35012;47.200;9.748;2023-03-02T00:00:36;27.33;;;20.27;;
49175;SDS011;35012;47.200;9.748;2023-03-02T00:03:03;31.13;;;20.73;;
49175;SDS011;35012;47.200;9.748;2023-03-02T00:05:29;27.53;;;19.20;;
49175;SDS011;35012;47.200;9.748;2023-03-02T00:07:55;27.70;;;19.53;;
49175;SDS011;35012;47.200;9.748;2023-03-02T00:10:22;29.13;;;20.27;;
49175;SDS011;35012;47.200;9.748;2023-03-02T00:12:48;30.20;;;20.97;;
49175;SDS011;35012;47.200;9.748;2023-03-02T00:15:13;31.17;;;21.40;;
49175;SDS011;35012;47.200;9.748;2023-03-02T00:17:39;29.23;;;20.53;;
49175;SDS011;35012;47.200;9.748;2023-03-02T00:20:04;29.30;;;21.07;;
49175;SDS011;35012;47.200;9.748;2023-03-02T00:22:37;31.57;;;21.87;;
49175;SDS011;35012;47.200;9.748;2023-03-02T00:25:03;30.50;;;21.57;;
49175;SDS011;35012;47.200;9.748;2023-03-02T00:27:29;30.03;;;21.30;;
49175;SDS011;35012;47.200;9.748;2023-03-02T00:29:55;30.23;;;20.90;;
49175;SDS011;35012;47.200;9.748;2023-03-02T00:32:21;31.47;;;21.17;;
49175;SDS011;35012;47.200;9.748;2023-03-02T00:34:47;33.40;;;22.13;;
49175;SDS011;35012;47.200;9.748;2023-03-02T00:37:12;28.97;;;20.80;;
49175;SDS011;35012;47.200;9.748;2023-03-02T00:39:38;31.40;;;21.33;;
49175;SDS011;35012;47.200;9.748;2023-03-02T00:42:03;31.40;;;20.97;;
49175;SDS011;35012;47.200;9.748;2023-03-02T00:44:29;32.43;;;21.57;;
49175;SDS011;35012;47.200;9.748;2023-03-02T00:46:54;30.17;;;20.30;;
49175;SDS011;35012;47.200;9.748;2023-03-02T00:49:21;31.13;;;21.73;;
49175;SDS011;35012;47.200;9.748;2023-03-02T00:51:46;31.83;;;21.77;;
49175;SDS011;35012;47.200;9.748;2023-03-02T00:54:12;31.07;;;20.57;;
49175;SDS011;35012;47.200;9.748;2023-03-02T00:56:37;31.70;;;20.87;;
49175;SDS011;35012;47.200;9.748;2023-03-02T00:59:09;34.60;;;22.57;;
49175;SDS011;35012;47.200;9.748;2023-03-02T01:01:50;31.97;;;21.83;;
49175;SDS011;35012;47.200;9.748;2023-03-02T01:04:25;29.83;;;20.03;;
49175;SDS011;35012;47.200;9.748;2023-03-02T01:06:57;29.23;;;19.70;;
49175;SDS011;35012;47.200;9.748;2023-03-02T01:09:24;36.03;;;22.07;;
49175;SDS011;35012;47.200;9.748;2023-03-02T01:11:50;31.30;;;21.90;;
49175;SDS011;35012;47.200;9.748;2023-03-02T01:14:16;31.77;;;21.37;;
49175;SDS011;35012;47.200;9.748;2023-03-02T01:16:41;32.70;;;21.90;;
49175;SDS011;35012;47.200;9.748;2023-03-02T01:19:07;32.27;;;21.53;;
49175;SDS011;35012;47.200;9.748;2023-03-02T01:21:33;31.23;;;21.63;;
49175;SDS011;35012;47.200;9.748;2023-03-02T01:23:58;35.07;;;22.33;;
49175;SDS011;35012;47.200;9.748;2023-03-02T01:26:24;30.33;;;20.90;;
49175;SDS011;35012;47.200;9.748;2023-03-02T01:28:49;35.03;;;22.67;;
49175;SDS011;35012;47.200;9.748;2023-03-02T01:31:20;33.30;;;22.27;;
49175;SDS011;35012;47.200;9.748;2023-03-02T01:33:46;33.70;;;21.97;;
49175;SDS011;35012;47.200;9.748;2023-03-02T01:36:11;32.17;;;20.97;;
49175;SDS011;35012;47.200;9.748;2023-03-02T01:38:37;32.67;;;21.40;;
49175;SDS011;35012;47.200;9.748;2023-03-02T01:41:03;32.07;;;21.67;;
49175;SDS011;35012;47.200;9.748;2023-03-02T01:43:28;32.83;;;21.13;;
49175;SDS011;35012;47.200;9.748;2023-03-02T01:45:56;32.20;;;21.40;;
49175;SDS011;35012;47.200;9.748;2023-03-02T01:51:19;35.50;;;22.43;;
49175;SDS011;35012;47.200;9.748;2023-03-02T01:53:47;30.80;;;20.77;;
49175;SDS011;35012;47.200;9.748;2023-03-02T01:56:16;29.57;;;21.13;;
49175;SDS011;35012;47.200;9.748;2023-03-02T01:58:44;34.93;;;22.00;;
49175;SDS011;35012;47.200;9.748;2023-03-02T02:01:10;31.60;;;20.17;;
49175;SDS011;35012;47.200;9.748;2023-03-02T02:03:43;31.23;;;20.77;;
49175;SDS011;35012;47.200;9.748;2023-03-02T02:06:16;32.47;;;20.90;;
49175;SDS011;35012;47.200;9.748;2023-03-02T02:08:45;31.57;;;20.73;;
49175;SDS011;35012;47.200;9.748;2023-03-02T02:11:11;29.37;;;20.20;;
49175;SDS011;35012;47.200;9.748;2023-03-02T02:13:37;34.17;;;20.90;;
49175;SDS011;35012;47.200;9.748;2023-03-02T02:16:03;31.73;;;20.93;;
49175;SDS011;35012;47.200;9.748;2023-03-02T02:18:29;34.67;;;22.40;;
49175;SDS011;35012;47.200;9.748;2023-03-02T02:20:55;34.70;;;23.00;;
49175;SDS011;35012;47.200;9.748;2023-03-02T02:23:24;33.93;;;22.63;;
49175;SDS011;35012;47.200;9.748;2023-03-02T02:25:56;33.13;;;21.33;;
49175;SDS011;35012;47.200;9.748;2023-03-02T02:28:36;30.90;;;20.73;;
49175;SDS011;35012;47.200;9.748;2023-03-02T02:31:21;36.03;;;22.03;;
49175;SDS011;35012;47.200;9.748;2023-03-02T02:33:55;34.30;;;21.53;;
49175;SDS011;35012;47.200;9.748;2023-03-02T02:36:27;33.53;;;21.77;;
49175;SDS011;35012;47.200;9.748;2023-03-02T02:38:57;35.60;;;22.17;;
49175;SDS011;35012;47.200;9.748;2023-03-02T02:41:26;33.40;;;21.13;;
49175;SDS011;35012;47.200;9.748;2023-03-02T02:43:54;32.90;;;21.77;;
49175;SDS011;35012;47.200;9.748;2023-03-02T02:46:20;29.73;;;20.93;;
49175;SDS011;35012;47.200;9.748;2023-03-02T02:48:46;31.33;;;21.03;;
49175;SDS011;35012;47.200;9.748;2023-03-02T02:51:12;30.47;;;20.17;;
49175;SDS011;35012;47.200;9.748;2023-03-02T02:56:31;30.97;;;19.40;;
49175;SDS011;35012;47.200;9.748;2023-03-02T02:59:20;32.07;;;20.10;;
49175;SDS011;35012;47.200;9.748;2023-03-02T03:01:46;31.20;;;19.67;;
49175;SDS011;35012;47.200;9.748;2023-03-02T03:04:13;29.27;;;20.47;;
49175;SDS011;35012;47.200;9.748;2023-03-02T03:06:48;28.93;;;19.73;;
49175;SDS011;35012;47.200;9.748;2023-03-02T03:09:16;28.50;;;19.40;;
49175;SDS011;35012;47.200;9.748;2023-03-02T03:11:42;28.67;;;19.30;;
49175;SDS011;35012;47.200;9.748;2023-03-02T03:14:13;33.07;;;20.63;;
49175;SDS011;35012;47.200;9.748;2023-03-02T03:16:44;35.20;;;21.97;;
49175;SDS011;35012;47.200;9.748;2023-03-02T03:19:22;29.30;;;19.40;;
49175;SDS011;35012;47.200;9.748;2023-03-02T03:21:50;28.70;;;19.10;;
49175;SDS011;35012;47.200;9.748;2023-03-02T03:24:18;26.93;;;18.20;;
49175;SDS011;35012;47.200;9.748;2023-03-02T03:26:44;31.93;;;20.00;;
49175;SDS011;35012;47.200;9.748;2023-03-02T03:29:10;29.53;;;19.43;;
49175;SDS011;35012;47.200;9.748;2023-03-02T03:31:36;28.57;;;18.50;;
49175;SDS011;35012;47.200;9.748;2023-03-02T03:34:02;28.90;;;18.67;;
49175;SDS011;35012;47.200;9.748;2023-03-02T03:36:29;28.80;;;18.77;;
49175;SDS011;35012;47.200;9.748;2023-03-02T03:38:55;31.47;;;20.73;;
49175;SDS011;35012;47.200;9.748;2023-03-02T03:41:21;31.33;;;20.87;;
49175;SDS011;35012;47.200;9.748;2023-03-02T03:43:47;31.17;;;20.90;;
49175;SDS011;35012;47.200;9.748;2023-03-02T03:46:12;30.83;;;20.87;;
49175;SDS011;35012;47.200;9.748;2023-03-02T03:48:38;38.90;;;23.00;;
49175;SDS011;35012;47.200;9.748;2023-03-02T03:51:04;34.97;;;21.43;;
49175;SDS011;35012;47.200;9.748;2023-03-02T03:53:30;33.20;;;20.40;;
49175;SDS011;35012;47.200;9.748;2023-03-02T03:55:56;33.90;;;21.17;;
49175;SDS011;35012;47.200;9.748;2023-03-02T03:58:22;35.93;;;22.30;;
49175;SDS011;35012;47.200;9.748;2023-03-02T04:00:49;33.80;;;21.33;;
49175;SDS011;35012;47.200;9.748;2023-03-02T04:03:16;37.23;;;21.50;;
49175;SDS011;35012;47.200;9.748;2023-03-02T04:05:42;35.10;;;21.97;;
49175;SDS011;35012;47.200;9.748;2023-03-02T04:08:08;31.03;;;18.90;;
49175;SDS011;35012;47.200;9.748;2023-03-02T04:10:34;28.37;;;17.73;;
49175;SDS011;35012;47.200;9.748;2023-03-02T04:12:59;29.63;;;18.40;;
49175;SDS011;35012;47.200;9.748;2023-03-02T04:15:25;29.47;;;18.00;;
49175;SDS011;35012;47.200;9.748;2023-03-02T04:17:51;24.77;;;16.43;;
49175;SDS011;35012;47.200;9.748;2023-03-02T04:20:17;31.13;;;19.80;;
49175;SDS011;35012;47.200;9.748;2023-03-02T04:22:44;32.97;;;20.30;;
49175;SDS011;35012;47.200;9.748;2023-03-02T04:25:12;27.27;;;18.73;;
49175;SDS011;35012;47.200;9.748;2023-03-02T04:27:39;30.57;;;19.43;;
49175;SDS011;35012;47.200;9.748;2023-03-02T04:30:06;31.30;;;20.87;;
49175;SDS011;35012;47.200;9.748;2023-03-02T04:32:32;35.63;;;21.93;;
49175;SDS011;35012;47.200;9.748;2023-03-02T04:34:57;35.03;;;22.37;;
49175;SDS011;35012;47.200;9.748;2023-03-02T04:37:23;32.30;;;20.40;;
49175;SDS011;35012;47.200;9.748;2023-03-02T04:39:49;33.40;;;20.97;;
49175;SDS011;35012;47.200;9.748;2023-03-02T04:42:17;33.10;;;20.50;;
49175;SDS011;35012;47.200;9.748;2023-03-02T04:44:44;29.10;;;18.73;;
49175;SDS011;35012;47.200;9.748;2023-03-02T04:47:09;31.50;;;19.63;;
49175;SDS011;35012;47.200;9.748;2023-03-02T04:49:35;27.23;;;18.13;;
49175;SDS011;35012;47.200;9.748;2023-03-02T04:52:01;26.73;;;17.43;;
49175;SDS011;35012;47.200;9.748;2023-03-02T04:54:26;28.80;;;19.33;;
49175;SDS011;35012;47.200;9.748;2023-03-02T04:56:52;29.90;;;19.13;;
49175;SDS011;35012;47.200;9.748;2023-03-02T04:59:20;29.77;;;19.17;;
49175;SDS011;35012;47.200;9.748;2023-03-02T05:01:50;30.27;;;19.47;;
49175;SDS011;35012;47.200;9.748;2023-03-02T05:04:17;34.00;;;20.87;;
49175;SDS011;35012;47.200;9.748;2023-03-02T05:06:43;30.03;;;19.47;;
49175;SDS011;35012;47.200;9.748;2023-03-02T05:09:09;29.40;;;19.07;;
49175;SDS011;35012;47.200;9.748;2023-03-02T05:11:35;29.63;;;18.87;;
49175;SDS011;35012;47.200;9.748;2023-03-02T05:14:01;29.70;;;19.17;;
49175;SDS011;35012;47.200;9.748;2023-03-02T05:16:29;31.33;;;20.40;;
49175;SDS011;35012;47.200;9.748;2023-03-02T05:18:56;33.30;;;20.00;;
49175;SDS011;35012;47.200;9.748;2023-03-02T05:21:23;33.67;;;19.40;;
49175;SDS011;35012;47.200;9.748;2023-03-02T05:23:49;31.90;;;19.97;;
49175;SDS011;35012;47.200;9.748;2023-03-02T05:26:14;29.97;;;19.60;;
49175;SDS011;35012;47.200;9.748;2023-03-02T05:28:40;31.10;;;19.27;;
49175;SDS011;35012;47.200;9.748;2023-03-02T05:31:06;30.33;;;20.60;;
49175;SDS011;35012;47.200;9.748;2023-03-02T05:33:32;35.83;;;22.50;;
49175;SDS011;35012;47.200;9.748;2023-03-02T05:35:57;31.83;;;20.23;;
49175;SDS011;35012;47.200;9.748;2023-03-02T05:38:24;32.50;;;21.30;;
49175;SDS011;35012;47.200;9.748;2023-03-02T05:40:51;31.77;;;20.23;;
49175;SDS011;35012;47.200;9.748;2023-03-02T05:43:18;34.33;;;20.80;;
49175;SDS011;35012;47.200;9.748;2023-03-02T05:45:45;32.00;;;19.53;;
49175;SDS011;35012;47.200;9.748;2023-03-02T05:48:12;34.17;;;21.50;;
49175;SDS011;35012;47.200;9.748;2023-03-02T05:50:38;34.67;;;21.47;;
49175;SDS011;35012;47.200;9.748;2023-03-02T05:53:04;30.47;;;19.97;;
49175;SDS011;35012;47.200;9.748;2023-03-02T05:55:29;33.33;;;20.13;;
49175;SDS011;35012;47.200;9.748;2023-03-02T05:57:55;34.13;;;21.80;;
49175;SDS011;35012;47.200;9.748;2023-03-02T06:00:21;58.93;;;39.33;;
49175;SDS011;35012;47.200;9.748;2023-03-02T06:02:46;70.60;;;45.70;;
49175;SDS011;35012;47.200;9.748;2023-03-02T06:05:16;66.00;;;44.03;;
49175;SDS011;35012;47.200;9.748;2023-03-02T06:07:43;61.90;;;42.33;;
49175;SDS011;35012;47.200;9.748;2023-03-02T06:10:09;55.00;;;37.53;;
49175;SDS011;35012;47.200;9.748;2023-03-02T06:12:36;47.97;;;31.67;;
49175;SDS011;35012;47.200;9.748;2023-03-02T06:15:02;39.03;;;26.30;;
49175;SDS011;35012;47.200;9.748;2023-03-02T06:17:29;41.37;;;25.37;;
49175;SDS011;35012;47.200;9.748;2023-03-02T06:19:54;40.33;;;25.47;;
49175;SDS011;35012;47.200;9.748;2023-03-02T06:22:20;41.97;;;27.73;;
49175;SDS011;35012;47.200;9.748;2023-03-02T06:24:45;45.33;;;29.23;;
49175;SDS011;35012;47.200;9.748;2023-03-02T06:27:11;43.83;;;29.93;;
49175;SDS011;35012;47.200;9.748;2023-03-02T06:29:37;48.33;;;30.90;;
49175;SDS011;35012;47.200;9.748;2023-03-02T06:32:03;41.80;;;27.47;;
49175;SDS011;35012;47.200;9.748;2023-03-02T06:34:28;43.30;;;28.03;;
49175;SDS011;35012;47.200;9.748;2023-03-02T06:36:54;42.00;;;27.97;;
49175;SDS011;35012;47.200;9.748;2023-03-02T06:39:20;46.67;;;28.30;;
49175;SDS011;35012;47.200;9.748;2023-03-02T06:41:46;40.43;;;26.03;;
49175;SDS011;35012;47.200;9.748;2023-03-02T06:44:12;38.37;;;25.80;;
49175;SDS011;35012;47.200;9.748;2023-03-02T06:46:39;37.13;;;24.20;;
49175;SDS011;35012;47.200;9.748;2023-03-02T06:49:05;35.30;;;23.03;;
49175;SDS011;35012;47.200;9.748;2023-03-02T06:51:31;37.63;;;24.73;;
49175;SDS011;35012;47.200;9.748;2023-03-02T06:53:56;36.07;;;23.53;;
49175;SDS011;35012;47.200;9.748;2023-03-02T06:56:22;37.97;;;24.20;;
49175;SDS011;35012;47.200;9.748;2023-03-02T06:58:48;39.33;;;25.60;;
49175;SDS011;35012;47.200;9.748;2023-03-02T07:01:13;40.67;;;26.10;;
49175;SDS011;35012;47.200;9.748;2023-03-02T07:03:39;36.17;;;25.03;;
49175;SDS011;35012;47.200;9.748;2023-03-02T07:06:04;39.67;;;25.43;;
49175;SDS011;35012;47.200;9.748;2023-03-02T07:08:30;37.90;;;25.30;;
49175;SDS011;35012;47.200;9.748;2023-03-02T07:10:56;34.60;;;23.73;;
49175;SDS011;35012;47.200;9.748;2023-03-02T07:13:21;38.47;;;25.97;;
49175;SDS011;35012;47.200;9.748;2023-03-02T07:15:46;38.60;;;25.57;;
49175;SDS011;35012;47.200;9.748;2023-03-02T07:18:12;33.73;;;24.00;;
49175;SDS011;35012;47.200;9.748;2023-03-02T07:20:37;55.07;;;34.03;;
49175;SDS011;35012;47.200;9.748;2023-03-02T07:23:04;46.53;;;28.93;;
49175;SDS011;35012;47.200;9.748;2023-03-02T07:25:29;46.63;;;29.73;;
49175;SDS011;35012;47.200;9.748;2023-03-02T07:27:56;42.97;;;28.20;;
49175;SDS011;35012;47.200;9.748;2023-03-02T07:30:22;45.87;;;29.60;;
49175;SDS011;35012;47.200;9.748;2023-03-02T07:32:48;35.37;;;23.53;;
49175;SDS011;35012;47.200;9.748;2023-03-02T07:35:13;34.50;;;22.80;;
49175;SDS011;35012;47.200;9.748;2023-03-02T07:37:41;40.73;;;25.80;;
49175;SDS011;35012;47.200;9.748;2023-03-02T07:40:06;41.87;;;27.37;;
49175;SDS011;35012;47.200;9.748;2023-03-02T07:42:32;42.07;;;26.47;;
49175;SDS011;35012;47.200;9.748;2023-03-02T07:44:58;36.70;;;25.00;;
49175;SDS011;35012;47.200;9.748;2023-03-02T07:47:23;36.33;;;22.87;;
49175;SDS011;35012;47.200;9.748;2023-03-02T07:49:49;32.77;;;21.17;;
49175;SDS011;35012;47.200;9.748;2023-03-02T07:52:15;31.30;;;20.30;;
49175;SDS011;35012;47.200;9.748;2023-03-02T07:54:40;30.63;;;21.00;;
49175;SDS011;35012;47.200;9.748;2023-03-02T07:57:06;30.47;;;19.93;;
49175;SDS011;35012;47.200;9.748;2023-03-02T07:59:31;33.30;;;19.87;;
49175;SDS011;35012;47.200;9.748;2023-03-02T08:01:57;31.30;;;20.50;;
49175;SDS011;35012;47.200;9.748;2023-03-02T08:04:22;28.20;;;20.03;;
49175;SDS011;35012;47.200;9.748;2023-03-02T08:06:48;31.53;;;19.33;;
49175;SDS011;35012;47.200;9.748;2023-03-02T08:09:13;30.60;;;20.10;;
49175;SDS011;35012;47.200;9.748;2023-03-02T08:11:40;34.57;;;21.83;;
49175;SDS011;35012;47.200;9.748;2023-03-02T08:14:06;30.60;;;19.43;;
49175;SDS011;35012;47.200;9.748;2023-03-02T08:16:31;30.87;;;20.13;;
49175;SDS011;35012;47.200;9.748;2023-03-02T08:18:57;36.17;;;20.13;;
49175;SDS011;35012;47.200;9.748;2023-03-02T08:21:23;30.27;;;20.30;;
49175;SDS011;35012;47.200;9.748;2023-03-02T08:23:50;34.03;;;20.13;;
49175;SDS011;35012;47.200;9.748;2023-03-02T08:26:16;34.23;;;20.97;;
49175;SDS011;35012;47.200;9.748;2023-03-02T08:28:42;31.13;;;20.07;;
49175;SDS011;35012;47.200;9.748;2023-03-02T08:31:07;33.30;;;21.10;;
49175;SDS011;35012;47.200;9.748;2023-03-02T08:33:34;30.47;;;20.73;;
49175;SDS011;35012;47.200;9.748;2023-03-02T08:36:04;30.27;;;19.57;;
49175;SDS011;35012;47.200;9.748;2023-03-02T08:38:32;29.80;;;19.53;;
49175;SDS011;35012;47.200;9.748;2023-03-02T08:40:58;28.47;;;19.57;;
49175;SDS011;35012;47.200;9.748;2023-03-02T08:43:23;29.37;;;19.60;;
49175;SDS011;35012;47.200;9.748;2023-03-02T08:45:50;28.20;;;19.00;;
49175;SDS011;35012;47.200;9.748;2023-03-02T08:48:16;27.53;;;19.13;;
49175;SDS011;35012;47.200;9.748;2023-03-02T08:50:42;28.30;;;19.83;;
49175;SDS011;35012;47.200;9.748;2023-03-02T08:53:08;28.17;;;20.30;;
49175;SDS011;35012;47.200;9.748;2023-03-02T08:55:34;26.17;;;18.73;;
49175;SDS011;35012;47.200;9.748;2023-03-02T08:58:01;28.67;;;20.17;;
49175;SDS011;35012;47.200;9.748;2023-03-02T09:00:27;27.90;;;19.17;;
49175;SDS011;35012;47.200;9.748;2023-03-02T09:02:53;30.73;;;20.13;;
49175;SDS011;35012;47.200;9.748;2023-03-02T09:05:18;28.90;;;20.93;;
49175;SDS011;35012;47.200;9.748;2023-03-02T09:07:44;29.43;;;21.03;;
49175;SDS011;35012;47.200;9.748;2023-03-02T09:10:09;30.87;;;20.93;;
49175;SDS011;35012;47.200;9.748;2023-03-02T09:12:35;35.60;;;21.30;;
49175;SDS011;35012;47.200;9.748;2023-03-02T09:15:01;28.80;;;20.03;;
49175;SDS011;35012;47.200;9.748;2023-03-02T09:17:26;30.20;;;20.67;;
49175;SDS011;35012;47.200;9.748;2023-03-02T09:19:52;32.30;;;22.53;;
49175;SDS011;35012;47.200;9.748;2023-03-02T09:22:17;29.60;;;20.70;;
49175;SDS011;35012;47.200;9.748;2023-03-02T09:24:42;31.80;;;21.53;;
49175;SDS011;35012;47.200;9.748;2023-03-02T09:27:08;30.13;;;20.20;;
49175;SDS011;35012;47.200;9.748;2023-03-02T09:29:33;27.80;;;20.00;;
49175;SDS011;35012;47.200;9.748;2023-03-02T09:31:59;29.80;;;21.80;;
49175;SDS011;35012;47.200;9.748;2023-03-02T09:34:24;27.53;;;20.23;;
49175;SDS011;35012;47.200;9.748;2023-03-02T09:36:50;30.37;;;20.70;;
49175;SDS011;35012;47.200;9.748;2023-03-02T09:39:15;28.07;;;21.30;;
49175;SDS011;35012;47.200;9.748;2023-03-02T09:42:31;32.67;;;22.17;;
49175;SDS011;35012;47.200;9.748;2023-03-02T09:47:13;29.60;;;21.77;;
49175;SDS011;35012;47.200;9.748;2023-03-02T09:52:37;28.43;;;18.97;;
49175;SDS011;35012;47.200;9.748;2023-03-02T09:55:12;29.30;;;20.10;;
49175;SDS011;35012;47.200;9.748;2023-03-02T09:57:40;32.77;;;20.77;;
49175;SDS011;35012;47.200;9.748;2023-03-02T10:00:10;28.00;;;20.57;;
49175;SDS011;35012;47.200;9.748;2023-03-02T10:05:25;26.90;;;18.47;;
49175;SDS011;35012;47.200;9.748;2023-03-02T10:07:53;26.43;;;19.33;;
49175;SDS011;35012;47.200;9.748;2023-03-02T10:21:23;28.13;;;19.43;;
49175;SDS011;35012;47.200;9.748;2023-03-02T10:31:35;29.77;;;19.63;;
49175;SDS011;35012;47.200;9.748;2023-03-02T10:34:03;26.43;;;19.57;;
49175;SDS011;35012;47.200;9.748;2023-03-02T10:36:30;26.27;;;19.57;;
49175;SDS011;35012;47.200;9.748;2023-03-02T10:38:59;27.17;;;19.23;;
49175;SDS011;35012;47.200;9.748;2023-03-02T10:41:33;32.43;;;21.30;;
49175;SDS011;35012;47.200;9.748;2023-03-02T10:44:07;29.17;;;19.53;;
49175;SDS011;35012;47.200;9.748;2023-03-02T10:46:40;29.50;;;21.43;;
49175;SDS011;35012;47.200;9.748;2023-03-02T10:52:34;28.13;;;19.47;;
49175;SDS011;35012;47.200;9.748;2023-03-02T10:54:42;30.53;;;21.17;;
49175;SDS011;35012;47.200;9.748;2023-03-02T10:57:27;27.30;;;20.10;;
49175;SDS011;35012;47.200;9.748;2023-03-02T11:00:12;24.20;;;17.97;;
49175;SDS011;35012;47.200;9.748;2023-03-02T11:02:51;26.43;;;19.07;;
49175;SDS011;35012;47.200;9.748;2023-03-02T11:12:56;28.37;;;19.43;;
49175;SDS011;35012;47.200;9.748;2023-03-02T11:15:23;23.60;;;19.10;;
49175;SDS011;35012;47.200;9.748;2023-03-02T11:18:13;26.20;;;20.27;;
49175;SDS011;35012;47.200;9.748;2023-03-02T11:21:00;25.70;;;20.63;;
49175;SDS011;35012;47.200;9.748;2023-03-02T11:23:52;25.67;;;18.93;;
49175;SDS011;35012;47.200;9.748;2023-03-02T11:26:24;22.97;;;19.33;;
49175;SDS011;35012;47.200;9.748;2023-03-02T11:29:08;26.40;;;19.93;;
49175;SDS011;35012;47.200;9.748;2023-03-02T11:31:49;25.47;;;20.00;;
49175;SDS011;35012;47.200;9.748;2023-03-02T11:34:49;25.77;;;20.73;;
49175;SDS011;35012;47.200;9.748;2023-03-02T11:37:22;24.93;;;20.37;;
49175;SDS011;35012;47.200;9.748;2023-03-02T11:40:13;24.80;;;19.93;;
49175;SDS011;35012;47.200;9.748;2023-03-02T11:42:42;22.67;;;19.70;;
49175;SDS011;35012;47.200;9.748;2023-03-02T11:47:37;24.60;;;20.07;;
49175;SDS011;35012;47.200;9.748;2023-03-02T11:50:03;25.17;;;22.03;;
49175;SDS011;35012;47.200;9.748;2023-03-02T11:52:31;25.57;;;21.47;;
49175;SDS011;35012;47.200;9.748;2023-03-02T11:55:32;23.40;;;20.20;;
49175;SDS011;35012;47.200;9.748;2023-03-02T11:57:52;27.80;;;21.40;;
49175;SDS011;35012;47.200;9.748;2023-03-02T12:03:03;28.80;;;21.77;;
49175;SDS011;35012;47.200;9.748;2023-03-02T12:05:32;25.97;;;22.00;;
49175;SDS011;35012;47.200;9.748;2023-03-02T12:10:54;26.40;;;20.73;;
49175;SDS011;35012;47.200;9.748;2023-03-02T12:13:24;26.07;;;21.07;;
49175;SDS011;35012;47.200;9.748;2023-03-02T12:16:00;26.50;;;22.47;;
49175;SDS011;35012;47.200;9.748;2023-03-02T12:18:46;27.50;;;22.07;;
49175;SDS011;35012;47.200;9.748;2023-03-02T12:21:14;25.83;;;22.00;;
49175;SDS011;35012;47.200;9.748;2023-03-02T12:31:38;25.83;;;20.93;;
49175;SDS011;35012;47.200;9.748;2023-03-02T12:34:08;24.73;;;21.77;;
49175;SDS011;35012;47.200;9.748;2023-03-02T12:37:01;26.23;;;22.00;;
49175;SDS011;35012;47.200;9.748;2023-03-02T12:47:37;25.83;;;22.37;;
49175;SDS011;35012;47.200;9.748;2023-03-02T12:50:13;24.63;;;21.07;;
49175;SDS011;35012;47.200;9.748;2023-03-02T12:52:41;24.40;;;21.80;;
49175;SDS011;35012;47.200;9.748;2023-03-02T12:57:45;24.50;;;21.23;;
49175;SDS011;35012;47.200;9.748;2023-03-02T13:00:14;26.27;;;20.83;;
49175;SDS011;35012;47.200;9.748;2023-03-02T13:02:43;26.40;;;21.03;;
49175;SDS011;35012;47.200;9.748;2023-03-02T13:05:15;23.73;;;21.13;;
49175;SDS011;35012;47.200;9.748;2023-03-02T13:07:51;25.90;;;21.37;;
49175;SDS011;35012;47.200;9.748;2023-03-02T13:12:51;26.83;;;22.13;;
49175;SDS011;35012;47.200;9.748;2023-03-02T13:15:17;26.23;;;21.67;;
49175;SDS011;35012;47.200;9.748;2023-03-02T13:17:43;26.47;;;22.43;;
49175;SDS011;35012;47.200;9.748;2023-03-02T13:20:10;28.53;;;22.13;;
49175;SDS011;35012;47.200;9.748;2023-03-02T13:22:38;25.53;;;21.47;;
49175;SDS011;35012;47.200;9.748;2023-03-02T13:25:05;26.73;;;22.50;;
49175;SDS011;35012;47.200;9.748;2023-03-02T13:27:32;25.37;;;21.73;;
49175;SDS011;35012;47.200;9.748;2023-03-02T13:30:18;26.90;;;22.53;;
49175;SDS011;35012;47.200;9.748;2023-03-02T13:32:50;28.60;;;23.27;;
49175;SDS011;35012;47.200;9.748;2023-03-02T13:35:30;27.30;;;22.57;;
49175;SDS011;35012;47.200;9.748;2023-03-02T13:37:59;29.53;;;23.03;;
49175;SDS011;35012;47.200;9.748;2023-03-02T13:40:39;29.23;;;22.70;;
49175;SDS011;35012;47.200;9.748;2023-03-02T13:43:48;28.37;;;23.27;;
49175;SDS011;35012;47.200;9.748;2023-03-02T13:46:24;29.33;;;23.70;;
49175;SDS011;35012;47.200;9.748;2023-03-02T13:48:56;29.70;;;22.33;;
49175;SDS011;35012;47.200;9.748;2023-03-02T13:51:29;32.17;;;23.13;;
49175;SDS011;35012;47.200;9.748;2023-03-02T13:54:03;31.30;;;23.40;;
49175;SDS011;35012;47.200;9.748;2023-03-02T13:56:37;29.70;;;22.53;;
49175;SDS011;35012;47.200;9.748;2023-03-02T13:59:14;30.83;;;23.30;;
49175;SDS011;35012;47.200;9.748;2023-03-02T14:01:40;28.60;;;22.33;;
49175;SDS011;35012;47.200;9.748;2023-03-02T14:04:11;33.60;;;23.57;;
49175;SDS011;35012;47.200;9.748;2023-03-02T14:06:38;31.73;;;22.53;;
49175;SDS011;35012;47.200;9.748;2023-03-02T14:09:03;31.07;;;23.07;;
49175;SDS011;35012;47.200;9.748;2023-03-02T14:11:36;34.00;;;23.50;;
49175;SDS011;35012;47.200;9.748;2023-03-02T14:14:04;32.37;;;22.97;;
49175;SDS011;35012;47.200;9.748;2023-03-02T14:16:30;33.13;;;23.60;;
49175;SDS011;35012;47.200;9.748;2023-03-02T14:18:59;31.70;;;23.00;;
49175;SDS011;35012;47.200;9.748;2023-03-02T14:21:25;32.93;;;22.30;;
49175;SDS011;35012;47.200;9.748;2023-03-02T14:23:51;31.60;;;21.80;;
49175;SDS011;35012;47.200;9.748;2023-03-02T14:26:30;35.50;;;23.63;;
49175;SDS011;35012;47.200;9.748;2023-03-02T14:31:56;33.47;;;23.57;;
49175;SDS011;35012;47.200;9.748;2023-03-02T14:34:24;34.57;;;23.30;;
49175;SDS011;35012;47.200;9.748;2023-03-02T14:36:51;32.27;;;23.13;;
49175;SDS011;35012;47.200;9.748;2023-03-02T14:39:19;33.27;;;22.63;;
49175;SDS011;35012;47.200;9.748;2023-03-02T14:41:47;32.17;;;23.00;;
49175;SDS011;35012;47.200;9.748;2023-03-02T14:44:13;37.57;;;24.23;;
49175;SDS011;35012;47.200;9.748;2023-03-02T14:46:38;35.60;;;24.03;;
49175;SDS011;35012;47.200;9.748;2023-03-02T14:49:04;34.87;;;23.13;;
49175;SDS011;35012;47.200;9.748;2023-03-02T14:51:30;33.07;;;23.60;;
49175;SDS011;35012;47.200;9.748;2023-03-02T14:53:58;31.57;;;22.47;;
49175;SDS011;35012;47.200;9.748;2023-03-02T14:56:26;32.13;;;22.63;;
49175;SDS011;35012;47.200;9.748;2023-03-02T14:58:51;31.40;;;21.73;;
49175;SDS011;35012;47.200;9.748;2023-03-02T15:01:18;34.97;;;23.33;;
49175;SDS011;35012;47.200;9.748;2023-03-02T15:03:43;33.60;;;22.10;;
49175;SDS011;35012;47.200;9.748;2023-03-02T15:06:21;34.93;;;23.10;;
49175;SDS011;35012;47.200;9.748;2023-03-02T15:08:48;34.43;;;22.93;;
49175;SDS011;35012;47.200;9.748;2023-03-02T15:11:13;35.90;;;24.50;;
49175;SDS011;35012;47.200;9.748;2023-03-02T15:13:39;36.93;;;23.10;;
49175;SDS011;35012;47.200;9.748;2023-03-02T15:16:04;33.97;;;23.33;;
49175;SDS011;35012;47.200;9.748;2023-03-02T15:18:30;39.27;;;23.97;;
49175;SDS011;35012;47.200;9.748;2023-03-02T15:20:56;37.30;;;24.00;;
49175;SDS011;35012;47.200;9.748;2023-03-02T15:23:21;37.07;;;25.53;;
49175;SDS011;35012;47.200;9.748;2023-03-02T15:25:47;38.63;;;24.43;;
49175;SDS011;35012;47.200;9.748;2023-03-02T15:28:12;37.13;;;23.53;;
49175;SDS011;35012;47.200;9.748;2023-03-02T15:30:38;34.00;;;22.93;;
49175;SDS011;35012;47.200;9.748;2023-03-02T15:33:05;42.67;;;26.03;;
49175;SDS011;35012;47.200;9.748;2023-03-02T15:35:31;37.67;;;24.43;;
49175;SDS011;35012;47.200;9.748;2023-03-02T15:37:56;35.10;;;23.57;;
49175;SDS011;35012;47.200;9.748;2023-03-02T15:40:26;36.23;;;23.77;;
49175;SDS011;35012;47.200;9.748;2023-03-02T15:42:52;40.20;;;24.50;;